Time;durP1;ratioP1;P1;durP2;ratioP2;P2;SDS_P1;SDS_P2;PMS_P1;PMS_P2;Temp;Humidity;BMP_temperature;BMP_pressure;BME280_temperature;BME280_humidity;BME280_pressure;Samples;Min_cycle;Max_cycle;Signal;HPM_P1;HPM_P2
2024/01/03 00:02:21;;;;;;;4.65;0.80;;;;;;;10.29;75.00;98639.44;5101026;27;20126;-89
2024/01/03 00:04:46;;;;;;;4.05;1.00;;;;;;;10.27;75.11;98638.69;5103571;28;20023;-88
2024/01/03 00:07:12;;;;;;;6.50;0.90;;;;;;;10.27;74.87;98660.34;5104278;28;20023;-87
2024/01/03 00:09:37;;;;;;;6.25;1.00;;;;;;;10.32;74.94;98663.50;5109633;28;20142;-89
2024/01/03 00:12:03;;;;;;;5.43;0.82;;;;;;;10.29;75.22;98655.03;5110393;28;20016;-87
2024/01/03 00:14:31;;;;;;;8.27;1.30;;;;;;;10.34;74.33;98668.59;5106033;28;20059;-87
2024/01/03 00:17:14;;;;;;;4.70;0.70;;;;;;;10.31;74.66;98648.84;5106824;28;20065;-88
2024/01/03 00:19:42;;;;;;;3.63;0.80;;;;;;;10.27;74.34;98664.69;5108547;28;20019;-92
2024/01/03 00:22:11;;;;;;;6.72;1.30;;;;;;;10.28;74.22;98659.41;5111578;28;20533;-90
2024/01/03 00:24:47;;;;;;;4.28;0.90;;;;;;;10.29;74.50;98670.63;5109849;28;20115;-89
2024/01/03 00:27:12;;;;;;;5.80;0.82;;;;;;;10.28;73.14;98682.81;5107839;28;20023;-88
2024/01/03 00:29:52;;;;;;;8.77;1.10;;;;;;;10.29;73.88;98681.03;5116933;27;20110;-89
2024/01/03 00:32:18;;;;;;;7.22;1.13;;;;;;;10.32;73.52;98696.44;5112855;27;20027;-91
2024/01/03 00:34:44;;;;;;;4.50;0.80;;;;;;;10.32;73.80;98694.69;5119256;27;20777;-90
2024/01/03 00:37:18;;;;;;;8.15;1.25;;;;;;;10.33;73.73;98698.94;5130797;27;20040;-89
2024/01/03 00:39:45;;;;;;;6.72;1.10;;;;;;;10.28;74.08;98697.53;5124182;27;20059;-89
2024/01/03 00:42:10;;;;;;;6.43;1.13;;;;;;;10.29;74.27;98720.84;5111074;27;20027;-92
2024/01/03 00:44:35;;;;;;;4.10;1.05;;;;;;;10.26;74.49;98718.44;5122884;27;20448;-92
2024/01/03 00:47:01;;;;;;;7.72;1.23;;;;;;;10.27;74.29;98708.84;5111881;27;20467;-90
2024/01/03 00:49:26;;;;;;;6.97;1.10;;;;;;;10.25;75.19;98715.91;5113649;27;20020;-91
2024/01/03 00:51:53;;;;;;;9.15;1.27;;;;;;;10.25;75.78;98716.75;5120589;27;20020;-91
2024/01/03 00:54:19;;;;;;;6.97;1.20;;;;;;;10.24;76.14;98729.84;5123457;27;20019;-91
2024/01/03 00:56:46;;;;;;;12.70;1.73;;;;;;;10.22;76.46;98695.31;5113633;27;20027;-89
2024/01/03 00:59:12;;;;;;;7.97;1.40;;;;;;;10.15;77.48;98716.47;5114977;27;20024;-92
2024/01/03 01:01:38;;;;;;;11.48;1.75;;;;;;;10.15;77.79;98726.03;5114037;27;20063;-90
2024/01/03 01:04:04;;;;;;;7.03;1.42;;;;;;;10.16;78.19;98731.13;5118345;27;20032;-90
2024/01/03 01:06:30;;;;;;;9.50;1.70;;;;;;;10.14;78.68;98719.97;5113261;27;20035;-89
2024/01/03 01:08:55;;;;;;;11.07;1.67;;;;;;;10.11;79.53;98714.13;5113533;27;20486;-88
2024/01/03 01:11:21;;;;;;;10.52;1.55;;;;;;;10.10;80.31;98726.28;5112760;27;20027;-89
2024/01/03 01:13:46;;;;;;;19.15;2.15;;;;;;;10.09;81.10;98736.75;5119059;27;20056;-89
2024/01/03 01:16:11;;;;;;;10.23;1.85;;;;;;;10.06;81.74;98724.81;5117535;27;20037;-89
2024/01/03 01:18:38;;;;;;;9.85;1.73;;;;;;;10.00;82.45;98725.97;5119902;27;20586;-89
2024/01/03 01:21:04;;;;;;;13.55;1.80;;;;;;;10.01;82.24;98750.19;5117543;27;20046;-89
2024/01/03 01:23:30;;;;;;;11.23;1.50;;;;;;;9.99;82.24;98737.28;5114946;27;20502;-89
2024/01/03 01:25:55;;;;;;;13.07;2.10;;;;;;;9.93;83.39;98760.19;5110209;27;20032;-89
2024/01/03 01:28:20;;;;;;;11.27;1.80;;;;;;;9.95;83.22;98741.00;5112480;27;20027;-89
2024/01/03 01:30:46;;;;;;;10.23;1.83;;;;;;;9.97;83.17;98744.34;5111567;27;20028;-89
2024/01/03 01:33:11;;;;;;;11.85;2.13;;;;;;;9.91;83.82;98743.84;5112961;27;20019;-89
2024/01/03 01:35:36;;;;;;;11.32;1.70;;;;;;;9.87;84.80;98753.56;5113449;27;20023;-90
2024/01/03 01:38:06;;;;;;;14.02;1.90;;;;;;;9.92;84.50;98763.69;5112619;27;20027;-89
2024/01/03 01:40:32;;;;;;;10.07;2.42;;;;;;;9.87;84.85;98772.59;5109124;27;20471;-89
2024/01/03 01:42:57;;;;;;;9.68;1.73;;;;;;;9.86;85.16;98768.34;5118360;27;20098;-90
2024/01/03 01:45:22;;;;;;;8.93;1.88;;;;;;;9.86;85.50;98764.88;5121693;27;20090;-88
2024/01/03 01:47:48;;;;;;;10.80;1.85;;;;;;;9.87;85.12;98763.97;5107603;27;20654;-89
2024/01/03 01:50:14;;;;;;;15.07;2.25;;;;;;;9.82;84.91;98761.63;5108343;27;20520;-88
2024/01/03 01:52:39;;;;;;;14.50;1.70;;;;;;;9.83;85.35;98767.66;5111140;27;20054;-90
2024/01/03 01:55:05;;;;;;;11.00;2.17;;;;;;;9.85;85.37;98771.00;5110443;27;20029;-89
2024/01/03 01:57:32;;;;;;;12.07;2.05;;;;;;;9.83;85.75;98773.69;5108927;27;20470;-90
2024/01/03 01:59:59;;;;;;;15.18;1.73;;;;;;;9.82;86.33;98784.19;5115490;27;20038;-91
2024/01/03 02:02:25;;;;;;;8.85;1.88;;;;;;;9.85;86.06;98782.25;5111123;27;20024;-88
2024/01/03 02:04:50;;;;;;;9.27;1.67;;;;;;;9.87;85.80;98793.38;5109635;27;20517;-89
2024/01/03 02:07:16;;;;;;;11.38;1.90;;;;;;;9.90;85.50;98781.16;5110075;27;20031;-90
2024/01/03 02:09:42;;;;;;;10.23;1.98;;;;;;;9.90;85.94;98799.34;5114483;27;20023;-90
2024/01/03 02:12:08;;;;;;;12.90;2.20;;;;;;;9.92;84.96;98800.06;5109570;27;20430;-88
2024/01/03 02:14:33;;;;;;;10.93;2.10;;;;;;;9.94;85.10;98800.81;5107150;28;20032;-89
2024/01/03 02:16:59;;;;;;;10.95;2.05;;;;;;;9.92;84.72;98798.31;5106630;28;20080;-90
2024/01/03 02:19:24;;;;;;;7.40;1.60;;;;;;;9.93;84.60;98784.41;5109130;28;20011;-90
2024/01/03 02:21:49;;;;;;;8.90;1.42;;;;;;;9.93;84.27;98789.59;5109530;27;20426;-90
2024/01/03 02:24:15;;;;;;;13.15;1.90;;;;;;;9.98;84.34;98789.34;5104146;28;20056;-90
2024/01/03 02:26:40;;;;;;;12.35;1.63;;;;;;;9.97;84.25;98795.44;5106495;28;20082;-89
2024/01/03 02:29:05;;;;;;;10.45;1.85;;;;;;;9.99;84.10;98822.19;5113632;27;20024;-89
2024/01/03 02:31:31;;;;;;;10.95;1.60;;;;;;;10.01;84.88;98796.97;5105363;27;20030;-90
2024/01/03 02:33:57;;;;;;;11.80;2.10;;;;;;;10.01;85.27;98794.38;5106099;28;20207;-89
2024/01/03 02:36:23;;;;;;;12.02;1.90;;;;;;;9.99;86.56;98804.00;5108818;27;20106;-89
2024/01/03 02:38:52;;;;;;;14.07;2.15;;;;;;;10.00;86.76;98816.06;5108808;27;20107;-90
2024/01/03 02:41:17;;;;;;;8.75;1.70;;;;;;;9.96;87.82;98804.16;5106082;28;20386;-88
2024/01/03 02:43:43;;;;;;;15.43;2.40;;;;;;;9.94;88.16;98809.47;5106269;27;20035;-89
2024/01/03 02:46:08;;;;;;;14.23;1.95;;;;;;;9.92;89.24;98821.69;5102512;27;20118;-89
2024/01/03 02:48:33;;;;;;;16.63;2.38;;;;;;;9.87;89.63;98806.38;5110910;27;20454;-91
2024/01/03 02:50:59;;;;;;;11.40;1.80;;;;;;;9.83;90.06;98796.22;5106799;27;20380;-89
2024/01/03 02:53:24;;;;;;;13.25;2.30;;;;;;;9.86;90.36;98809.88;5108097;27;20465;-91
2024/01/03 02:55:49;;;;;;;13.05;1.95;;;;;;;9.83;90.19;98810.06;5103297;27;20694;-89
2024/01/03 02:58:15;;;;;;;9.38;1.75;;;;;;;9.82;90.41;98818.75;5107221;28;20031;-90
2024/01/03 03:00:41;;;;;;;9.88;1.90;;;;;;;9.78;90.85;98811.22;5109089;27;20077;-89
2024/01/03 03:03:06;;;;;;;12.60;2.35;;;;;;;9.78;90.80;98819.03;5104828;27;20024;-88
2024/01/03 03:05:32;;;;;;;13.13;2.13;;;;;;;9.75;90.78;98808.81;5105563;27;20050;-90
2024/01/03 03:07:57;;;;;;;10.95;2.03;;;;;;;9.72;90.83;98821.03;5109664;27;20490;-90
2024/01/03 03:10:23;;;;;;;13.48;2.47;;;;;;;9.71;90.76;98816.75;5107682;27;20386;-89
2024/01/03 03:12:48;;;;;;;13.10;1.85;;;;;;;9.70;91.13;98819.44;5107528;27;20021;-89
2024/01/03 03:15:13;;;;;;;11.82;2.00;;;;;;;9.71;91.01;98826.31;5105942;27;20088;-89
2024/01/03 03:17:40;;;;;;;13.48;2.88;;;;;;;9.67;91.48;98827.41;5106395;28;20033;-88
2024/01/03 03:20:06;;;;;;;18.23;2.10;;;;;;;9.68;91.70;98831.66;5107650;27;20027;-89
2024/01/03 03:22:31;;;;;;;12.02;2.00;;;;;;;9.62;91.71;98824.19;5104454;28;20030;-89
2024/01/03 03:24:57;;;;;;;11.88;2.13;;;;;;;9.60;92.67;98823.44;5105093;28;20102;-89
2024/01/03 03:27:22;;;;;;;12.27;2.35;;;;;;;9.57;92.66;98827.88;5104007;27;20050;-90
2024/01/03 03:29:47;;;;;;;10.65;1.80;;;;;;;9.56;92.90;98828.81;5105509;27;20471;-89
2024/01/03 03:32:13;;;;;;;11.18;1.70;;;;;;;9.49;93.14;98819.69;5104818;27;20050;-89
2024/01/03 03:34:38;;;;;;;13.65;2.55;;;;;;;9.47;93.31;98816.31;5105989;28;20027;-89
2024/01/03 03:37:04;;;;;;;12.60;2.17;;;;;;;9.50;93.29;98833.50;5105996;27;20592;-90
2024/01/03 03:39:29;;;;;;;12.95;1.85;;;;;;;9.46;93.53;98825.03;5112884;27;20019;-89
2024/01/03 03:41:54;;;;;;;11.25;1.85;;;;;;;9.45;93.97;98831.16;5113538;27;20027;-89
2024/01/03 03:44:20;;;;;;;10.45;1.88;;;;;;;9.45;94.67;98845.91;5116735;27;20114;-89
2024/01/03 03:46:45;;;;;;;11.57;1.98;;;;;;;9.52;93.82;98835.09;5105325;28;20487;-89
2024/01/03 03:49:10;;;;;;;17.65;2.53;;;;;;;9.49;95.10;98837.00;5106784;28;20115;-89
2024/01/03 03:51:36;;;;;;;13.20;2.65;;;;;;;9.45;95.45;98835.50;5108827;27;20027;-90
2024/01/03 03:54:01;;;;;;;15.07;2.20;;;;;;;9.41;96.82;98833.06;5108853;28;20226;-91
2024/01/03 03:56:30;;;;;;;16.45;2.20;;;;;;;9.39;97.40;98841.88;5106259;28;20045;-89
2024/01/03 03:58:56;;;;;;;10.77;2.17;;;;;;;9.35;97.88;98840.34;5112798;27;20101;-90
2024/01/03 04:01:21;;;;;;;12.32;2.17;;;;;;;9.31;98.62;98838.84;5103533;28;20043;-89
2024/01/03 04:03:47;;;;;;;12.55;1.95;;;;;;;9.28;98.99;98839.84;5118884;27;20119;-89
2024/01/03 04:06:14;;;;;;;13.93;2.13;;;;;;;9.25;99.66;98840.81;5104385;28;20023;-88
2024/01/03 04:08:42;;;;;;;13.80;1.95;;;;;;;9.22;100.00;98829.78;5105663;28;20063;-88
2024/01/03 04:11:07;;;;;;;13.13;1.90;;;;;;;9.19;100.00;98835.97;5114145;28;20028;-88
2024/01/03 04:13:33;;;;;;;16.05;2.33;;;;;;;9.17;100.00;98832.63;5104271;28;20236;-89
2024/01/03 04:16:02;;;;;;;14.25;2.13;;;;;;;9.15;100.00;98834.44;5106035;28;20701;-87
2024/01/03 04:18:28;;;;;;;13.10;2.00;;;;;;;9.11;100.00;98848.50;5104090;28;20170;-87
2024/01/03 04:20:53;;;;;;;15.32;2.22;;;;;;;9.12;100.00;98850.16;5106575;28;20027;-88
2024/01/03 04:23:19;;;;;;;12.68;2.08;;;;;;;9.12;100.00;98847.56;5105858;28;20034;-87
2024/01/03 04:25:45;;;;;;;13.00;1.83;;;;;;;9.09;100.00;98852.91;5106127;28;20031;-88
2024/01/03 04:28:11;;;;;;;11.13;1.73;;;;;;;9.05;100.00;98843.66;5108491;28;20475;-87
2024/01/03 04:30:36;;;;;;;10.55;1.55;;;;;;;9.07;100.00;98847.81;5104173;28;20021;-87
2024/01/03 04:33:01;;;;;;;11.80;1.63;;;;;;;9.06;100.00;98851.34;5109142;28;20434;-87
2024/01/03 04:35:27;;;;;;;13.38;1.67;;;;;;;9.07;100.00;98862.53;5108219;28;20391;-86
2024/01/03 04:37:53;;;;;;;5.93;1.25;;;;;;;9.05;100.00;98854.00;5109569;27;20024;-87
2024/01/03 04:40:19;;;;;;;10.38;1.45;;;;;;;9.05;100.00;98856.59;5103950;28;20022;-88
2024/01/03 04:42:44;;;;;;;10.98;1.88;;;;;;;9.10;99.96;98862.38;5115708;28;20027;-87
2024/01/03 04:45:09;;;;;;;9.52;1.77;;;;;;;9.07;100.00;98862.53;5106830;27;20026;-88
2024/01/03 04:47:35;;;;;;;5.82;1.25;;;;;;;9.07;99.88;98865.13;5106602;27;20119;-87
2024/01/03 04:50:00;;;;;;;8.18;1.45;;;;;;;9.03;100.00;98868.81;5105288;28;20030;-87
2024/01/03 04:52:25;;;;;;;7.90;1.42;;;;;;;9.09;99.84;98877.13;5111694;28;20111;-88
2024/01/03 04:54:51;;;;;;;8.30;1.67;;;;;;;9.06;99.76;98877.28;5111488;28;20027;-86
2024/01/03 04:57:16;;;;;;;6.78;1.48;;;;;;;9.07;99.59;98870.31;5105200;28;20028;-87
2024/01/03 04:59:42;;;;;;;7.80;1.30;;;;;;;9.06;99.35;98879.00;5110563;28;20027;-86
2024/01/03 05:02:07;;;;;;;8.68;1.25;;;;;;;9.07;99.11;98868.56;5107470;28;20398;-87
2024/01/03 05:04:32;;;;;;;8.68;1.17;;;;;;;9.14;98.59;98873.47;5107944;28;20403;-87
2024/01/03 05:06:58;;;;;;;7.75;1.27;;;;;;;9.10;98.41;98873.59;5117513;28;20580;-86
2024/01/03 05:09:23;;;;;;;9.40;1.20;;;;;;;9.08;98.39;98879.78;5116339;28;20546;-87
2024/01/03 05:11:48;;;;;;;7.38;1.05;;;;;;;9.07;98.63;98872.91;5111302;27;20015;-87
2024/01/03 05:14:14;;;;;;;7.75;1.38;;;;;;;9.12;98.05;98870.91;5110685;28;20083;-87
2024/01/03 05:16:41;;;;;;;7.90;0.90;;;;;;;9.11;98.27;98875.28;5107340;28;20030;-87
2024/01/03 05:19:06;;;;;;;5.80;1.00;;;;;;;9.11;98.93;98871.84;5113362;27;20019;-87
2024/01/03 05:21:31;;;;;;;6.68;1.27;;;;;;;9.08;99.13;98869.41;5114394;27;20031;-87
2024/01/03 05:23:57;;;;;;;4.75;0.95;;;;;;;9.06;99.88;98876.41;5110199;27;20043;-87
2024/01/03 05:26:22;;;;;;;5.18;0.90;;;;;;;9.01;100.00;98881.03;5112435;27;20110;-87
2024/01/03 05:28:47;;;;;;;7.30;1.20;;;;;;;9.01;100.00;98883.63;5110423;27;20085;-87
2024/01/03 05:31:13;;;;;;;6.47;1.42;;;;;;;8.93;100.00;98887.41;5113451;27;20023;-87
2024/01/03 05:33:38;;;;;;;6.05;0.80;;;;;;;8.87;100.00;98879.97;5113869;27;20072;-89
2024/01/03 05:36:04;;;;;;;5.50;0.80;;;;;;;8.79;100.00;98889.88;5112566;27;20023;-87
2024/01/03 05:38:29;;;;;;;5.70;0.90;;;;;;;8.75;100.00;98890.94;5110116;27;20498;-87
2024/01/03 05:40:54;;;;;;;6.88;0.88;;;;;;;8.72;100.00;98875.53;5110112;27;20016;-87
2024/01/03 05:43:21;;;;;;;4.63;0.93;;;;;;;8.70;100.00;98885.16;5107713;27;20051;-88
2024/01/03 05:45:46;;;;;;;4.57;0.90;;;;;;;8.68;100.00;98881.81;5113266;27;20020;-86
2024/01/03 05:48:11;;;;;;;4.88;0.73;;;;;;;8.68;100.00;98892.16;5117646;27;20439;-87
2024/01/03 05:50:37;;;;;;;3.47;0.98;;;;;;;8.66;100.00;98887.03;5113028;27;20077;-86
2024/01/03 05:53:02;;;;;;;7.05;1.13;;;;;;;8.67;100.00;98880.94;5113527;27;20035;-86
2024/01/03 05:55:28;;;;;;;7.53;0.80;;;;;;;8.65;100.00;98883.63;5111450;27;20052;-88
2024/01/03 05:57:53;;;;;;;4.65;0.80;;;;;;;8.68;100.00;98881.81;5115233;27;20019;-87
2024/01/03 06:00:19;;;;;;;9.15;1.08;;;;;;;8.64;100.00;98887.13;5112266;27;20015;-86
2024/01/03 06:02:44;;;;;;;6.28;0.90;;;;;;;8.67;100.00;98893.09;5106875;27;20069;-89
2024/01/03 06:05:12;;;;;;;3.05;0.70;;;;;;;8.63;100.00;98895.81;5115944;27;20084;-90
2024/01/03 06:07:38;;;;;;;3.90;0.65;;;;;;;8.62;100.00;98888.13;5107346;27;20023;-88
2024/01/03 06:10:03;;;;;;;5.20;0.85;;;;;;;8.56;100.00;98896.19;5113296;27;20050;-89
2024/01/03 06:12:29;;;;;;;4.50;0.90;;;;;;;8.58;100.00;98902.97;5114137;27;20031;-89
2024/01/03 06:14:55;;;;;;;5.07;0.90;;;;;;;8.56;100.00;98888.41;5114423;27;20019;-90
2024/01/03 06:17:20;;;;;;;5.32;1.08;;;;;;;8.52;100.00;98898.09;5116044;27;20026;-88
2024/01/03 06:19:46;;;;;;;4.90;0.90;;;;;;;8.53;100.00;98888.56;5114985;27;20355;-87
2024/01/03 06:22:11;;;;;;;4.38;1.00;;;;;;;8.52;100.00;98897.25;5114786;27;20440;-86
2024/01/03 06:24:36;;;;;;;6.22;0.90;;;;;;;8.48;100.00;98897.41;5118594;27;20023;-87
2024/01/03 06:27:02;;;;;;;5.30;1.20;;;;;;;8.50;100.00;98897.34;5109041;27;20547;-87
2024/01/03 06:29:27;;;;;;;5.70;1.00;;;;;;;8.45;100.00;98907.91;5113582;27;20479;-88
2024/01/03 06:31:52;;;;;;;6.43;0.95;;;;;;;8.45;100.00;98912.22;5105920;27;20180;-87
2024/01/03 06:34:18;;;;;;;5.00;1.10;;;;;;;8.40;100.00;98907.28;5106564;28;20069;-87
2024/01/03 06:36:43;;;;;;;2.92;0.82;;;;;;;8.37;100.00;98907.41;5108420;28;20109;-88
2024/01/03 06:39:08;;;;;;;5.57;1.20;;;;;;;8.37;100.00;98902.25;5107414;27;20027;-88
2024/01/03 06:41:34;;;;;;;5.13;1.13;;;;;;;8.35;100.00;98899.72;5106787;28;20127;-89
2024/01/03 06:43:59;;;;;;;3.35;0.80;;;;;;;8.32;100.00;98907.66;5106502;27;20106;-88
2024/01/03 06:46:26;;;;;;;4.82;0.75;;;;;;;8.28;100.00;98900.94;5119977;27;20059;-87
2024/01/03 06:48:51;;;;;;;9.38;1.00;;;;;;;8.23;100.00;98905.47;5108701;27;20059;-87
2024/01/03 06:51:20;;;;;;;5.80;0.70;;;;;;;8.17;100.00;98898.84;5108301;28;20054;-88
2024/01/03 06:53:45;;;;;;;1.33;0.50;;;;;;;8.14;100.00;98901.56;5108618;27;20027;-88
2024/01/03 06:56:11;;;;;;;3.25;0.80;;;;;;;8.13;100.00;98917.19;5110014;27;20024;-89
2024/01/03 06:58:36;;;;;;;2.60;0.70;;;;;;;8.11;100.00;98914.69;5112090;27;20071;-88
2024/01/03 07:01:02;;;;;;;5.50;0.73;;;;;;;8.10;100.00;98912.16;5106291;28;20027;-88
2024/01/03 07:03:27;;;;;;;6.10;0.90;;;;;;;8.11;100.00;98911.25;5108145;27;20061;-88
2024/01/03 07:05:52;;;;;;;2.95;0.98;;;;;;;8.09;100.00;98906.16;5107093;27;20027;-89
2024/01/03 07:08:18;;;;;;;3.83;0.80;;;;;;;8.09;100.00;98920.81;5108117;27;20019;-88
2024/01/03 07:10:43;;;;;;;4.20;0.70;;;;;;;8.07;100.00;98933.00;5108141;27;20059;-88
2024/01/03 07:13:08;;;;;;;2.72;0.80;;;;;;;8.08;100.00;98937.28;5107245;27;20718;-89
2024/01/03 07:15:35;;;;;;;6.05;0.70;;;;;;;8.07;100.00;98927.81;5110289;27;20035;-88
2024/01/03 07:18:01;;;;;;;4.80;0.70;;;;;;;8.03;100.00;98915.00;5113128;27;20036;-88
2024/01/03 07:20:26;;;;;;;3.33;0.75;;;;;;;8.01;100.00;98919.44;5108426;27;20102;-88
2024/01/03 07:22:51;;;;;;;2.42;0.50;;;;;;;7.98;100.00;98927.34;5106144;28;20108;-87
2024/01/03 07:25:17;;;;;;;3.03;0.60;;;;;;;7.95;100.00;98939.59;5108589;27;20035;-88
2024/01/03 07:27:43;;;;;;;1.92;0.40;;;;;;;7.94;100.00;98932.75;5107761;27;20054;-87
2024/01/03 07:30:10;;;;;;;2.88;0.57;;;;;;;7.87;100.00;98947.69;5108628;27;20599;-87
2024/01/03 07:32:35;;;;;;;3.35;0.65;;;;;;;7.82;100.00;98952.25;5118275;27;20019;-88
2024/01/03 07:35:00;;;;;;;1.98;1.00;;;;;;;7.78;100.00;98950.72;5105439;28;20054;-86
2024/01/03 07:37:26;;;;;;;1.58;0.47;;;;;;;7.71;100.00;98943.22;5108327;27;20733;-87
2024/01/03 07:39:51;;;;;;;1.48;0.40;;;;;;;7.69;100.00;98945.03;5105758;28;20096;-88
2024/01/03 07:42:17;;;;;;;0.98;0.30;;;;;;;7.66;100.00;98947.78;5106478;27;20466;-87
2024/01/03 07:44:42;;;;;;;0.57;0.25;;;;;;;7.62;100.00;98947.97;5106203;27;20473;-88
2024/01/03 07:47:09;;;;;;;1.40;0.40;;;;;;;7.59;100.00;98948.94;5107224;27;20100;-87
2024/01/03 07:49:36;;;;;;;2.70;0.30;;;;;;;7.57;100.00;98958.50;5107437;27;20118;-89
2024/01/03 07:52:01;;;;;;;2.20;0.40;;;;;;;7.56;100.00;98957.69;5107061;28;20084;-88
2024/01/03 07:54:27;;;;;;;2.67;0.60;;;;;;;7.54;100.00;98961.22;5105382;28;20031;-88
2024/01/03 07:56:52;;;;;;;2.72;0.40;;;;;;;7.54;100.00;98966.41;5106573;28;20039;-88
2024/01/03 07:59:17;;;;;;;1.83;0.50;;;;;;;7.52;100.00;98963.91;5107743;27;20027;-87
2024/01/03 08:01:43;;;;;;;2.15;0.47;;;;;;;7.52;100.00;98963.03;5108576;28;20055;-88
2024/01/03 08:04:08;;;;;;;1.10;0.40;;;;;;;7.51;100.00;98971.75;5104281;28;20031;-87
2024/01/03 08:06:33;;;;;;;3.25;0.80;;;;;;;7.48;100.00;98969.28;5107555;28;20429;-88
2024/01/03 08:08:59;;;;;;;1.77;0.73;;;;;;;7.49;100.00;98969.19;5106605;28;20040;-88
2024/01/03 08:11:26;;;;;;;1.98;0.90;;;;;;;7.51;100.00;98979.50;5107085;28;20032;-87
2024/01/03 08:13:51;;;;;;;2.83;0.90;;;;;;;7.55;100.00;98973.25;5104675;28;20032;-87
2024/01/03 08:16:16;;;;;;;5.03;1.00;;;;;;;7.54;100.00;98971.59;5106111;28;20039;-87
2024/01/03 08:18:44;;;;;;;1.58;0.80;;;;;;;7.54;100.00;98971.59;5108166;28;20187;-88
2024/01/03 08:21:09;;;;;;;3.03;0.98;;;;;;;7.55;100.00;98973.25;5106128;28;20020;-89
2024/01/03 08:23:34;;;;;;;3.45;1.30;;;;;;;7.60;100.00;98976.50;5104880;28;20041;-88
2024/01/03 08:26:00;;;;;;;2.72;0.98;;;;;;;7.60;100.00;98973.91;5106913;28;20059;-87
2024/01/03 08:28:25;;;;;;;7.85;1.42;;;;;;;7.62;100.00;98974.69;5111797;27;20110;-88
2024/01/03 08:30:52;;;;;;;3.65;0.90;;;;;;;7.62;100.00;98976.44;5104320;28;20055;-88
2024/01/03 08:33:17;;;;;;;3.55;1.00;;;;;;;7.63;100.00;98985.88;5105038;28;20119;-87
2024/01/03 08:35:42;;;;;;;5.15;1.02;;;;;;;7.65;100.00;98981.47;5105478;28;20161;-87
2024/01/03 08:38:08;;;;;;;2.78;0.85;;;;;;;7.67;100.00;98983.09;5103725;28;20084;-89
2024/01/03 08:40:33;;;;;;;5.38;0.90;;;;;;;7.68;100.00;98977.03;5110178;28;20060;-87
2024/01/03 08:42:59;;;;;;;5.15;0.90;;;;;;;7.70;100.00;98988.13;5103673;28;20024;-88
2024/01/03 08:45:24;;;;;;;5.88;0.88;;;;;;;7.70;100.00;98987.28;5107657;28;20028;-86
2024/01/03 08:47:50;;;;;;;4.38;0.80;;;;;;;7.72;100.00;98991.50;5104135;28;20244;-87
2024/01/03 08:50:15;;;;;;;5.78;1.13;;;;;;;7.74;100.00;98994.03;5108521;28;20110;-86
2024/01/03 08:52:41;;;;;;;6.60;0.95;;;;;;;7.78;100.00;98999.91;5114150;27;20493;-89
2024/01/03 08:55:06;;;;;;;4.65;0.90;;;;;;;7.79;100.00;99005.00;5110762;27;20032;-90
2024/01/03 08:57:32;;;;;;;5.28;0.98;;;;;;;7.78;100.00;99005.91;5110981;27;20031;-91
2024/01/03 08:59:57;;;;;;;7.13;1.33;;;;;;;7.80;100.00;99008.44;5109922;27;20023;-89
2024/01/03 09:02:23;;;;;;;7.70;1.13;;;;;;;7.83;100.00;99005.72;5112307;27;20070;-91
2024/01/03 09:04:48;;;;;;;6.63;1.08;;;;;;;7.85;100.00;99011.69;5107083;27;20389;-90
2024/01/03 09:07:14;;;;;;;6.70;1.10;;;;;;;7.87;100.00;99002.94;5109562;27;20073;-92
2024/01/03 09:09:40;;;;;;;9.35;1.10;;;;;;;7.94;100.00;99011.25;5116769;27;20578;-91
2024/01/03 09:12:05;;;;;;;7.63;1.27;;;;;;;7.96;100.00;99009.44;5117105;27;20459;-89
2024/01/03 09:14:31;;;;;;;8.60;1.33;;;;;;;8.02;100.00;99016.94;5108280;27;20490;-88
2024/01/03 09:16:56;;;;;;;6.68;1.45;;;;;;;8.07;100.00;99005.53;5111702;27;20076;-93
2024/01/03 09:19:21;;;;;;;13.45;1.80;;;;;;;8.14;100.00;99017.31;5113653;27;20076;-88
2024/01/03 09:21:47;;;;;;;7.38;1.42;;;;;;;8.17;100.00;99014.56;5106892;27;20023;-90
2024/01/03 09:24:13;;;;;;;10.90;1.77;;;;;;;8.20;100.00;99022.19;5108763;28;20032;-89
2024/01/03 09:26:38;;;;;;;10.15;1.70;;;;;;;8.25;100.00;99015.06;5105867;27;20032;-88
2024/01/03 09:29:05;;;;;;;9.95;1.80;;;;;;;8.28;100.00;99027.88;5107352;27;20036;-87
2024/01/03 09:31:31;;;;;;;9.60;1.38;;;;;;;8.33;100.00;99007.78;5105160;27;20051;-87
2024/01/03 09:33:56;;;;;;;12.18;1.55;;;;;;;8.36;100.00;99017.16;5107219;27;20027;-89
2024/01/03 09:36:22;;;;;;;12.38;1.67;;;;;;;8.40;100.00;99016.09;5112788;27;20022;-91
2024/01/03 09:38:49;;;;;;;12.23;1.88;;;;;;;8.44;100.00;99024.56;5109200;27;20351;-87
2024/01/03 09:41:14;;;;;;;11.82;1.85;;;;;;;8.49;100.00;99022.66;5111913;27;20032;-90
2024/01/03 09:43:45;;;;;;;9.70;1.58;;;;;;;8.55;100.00;99017.16;5116115;27;20085;-88
2024/01/03 09:46:11;;;;;;;8.40;1.40;;;;;;;8.62;100.00;99028.94;5106165;27;20032;-89
2024/01/03 09:48:44;;;;;;;11.55;1.80;;;;;;;8.71;100.00;99022.47;5106191;28;20027;-89
2024/01/03 09:51:10;;;;;;;16.42;2.08;;;;;;;8.75;100.00;99024.00;5112337;27;20038;-89
2024/01/03 09:53:37;;;;;;;14.00;1.92;;;;;;;8.83;100.00;99030.56;5106819;27;20040;-89
2024/01/03 09:56:02;;;;;;;9.38;1.70;;;;;;;8.89;100.00;99025.94;5112425;27;20049;-89
2024/01/03 09:58:28;;;;;;;10.30;1.80;;;;;;;8.91;100.00;99023.28;5119246;27;20031;-89
2024/01/03 10:00:54;;;;;;;9.75;1.45;;;;;;;8.94;100.00;99034.34;5131155;27;20023;-88
2024/01/03 10:03:19;;;;;;;10.32;1.80;;;;;;;8.94;100.00;99038.69;5114694;27;20031;-91
2024/01/03 10:05:44;;;;;;;9.68;1.52;;;;;;;8.96;100.00;99032.50;5108466;28;20027;-89
2024/01/03 10:08:15;;;;;;;12.82;1.90;;;;;;;9.01;100.00;99054.81;5115140;27;20051;-89
2024/01/03 10:10:40;;;;;;;8.50;1.58;;;;;;;9.03;100.00;99043.44;5111674;27;20028;-89
2024/01/03 10:13:17;;;;;;;14.30;2.25;;;;;;;9.06;100.00;99047.63;5114309;27;20019;-89
2024/01/03 10:15:47;;;;;;;8.52;1.58;;;;;;;9.08;100.00;99041.47;5112645;27;20027;-89
2024/01/03 10:18:17;;;;;;;13.63;1.58;;;;;;;9.10;100.00;99043.97;5113294;27;20103;-89
2024/01/03 10:20:42;;;;;;;13.57;2.00;;;;;;;9.14;100.00;99040.31;5110555;27;20020;-89
2024/01/03 10:23:10;;;;;;;13.25;2.15;;;;;;;9.17;100.00;99042.75;5109225;27;20114;-88
2024/01/03 10:25:38;;;;;;;8.02;1.77;;;;;;;9.16;100.00;99048.88;5117201;27;20425;-90
2024/01/03 10:28:06;;;;;;;15.30;2.63;;;;;;;9.21;100.00;99046.03;5124385;27;20027;-89
2024/01/03 10:30:32;;;;;;;10.60;1.83;;;;;;;9.27;100.00;99045.75;5110922;27;20095;-90
2024/01/03 10:33:04;;;;;;;13.68;2.20;;;;;;;9.32;100.00;99051.53;5109287;27;20490;-89
2024/01/03 10:35:31;;;;;;;11.23;1.70;;;;;;;9.35;100.00;99047.97;5118497;27;20038;-88
2024/01/03 10:37:59;;;;;;;13.40;2.08;;;;;;;9.37;100.00;99054.75;5108769;28;20043;-89
2024/01/03 10:40:28;;;;;;;11.75;1.92;;;;;;;9.41;100.00;99058.03;5110279;27;20015;-87
2024/01/03 10:42:54;;;;;;;15.07;2.05;;;;;;;9.41;100.00;99068.41;5113764;27;20019;-89
2024/01/03 10:45:20;;;;;;;17.13;2.22;;;;;;;9.41;100.00;99060.63;5104639;27;20127;-89
2024/01/03 10:47:46;;;;;;;11.93;1.77;;;;;;;9.39;100.00;99054.69;5103880;27;20098;-89
2024/01/03 10:50:12;;;;;;;13.57;2.72;;;;;;;9.41;99.99;99060.63;5111047;27;20024;-88
2024/01/03 10:52:44;;;;;;;15.65;2.55;;;;;;;9.45;98.71;99054.38;5109654;28;20019;-88
2024/01/03 10:55:17;;;;;;;14.73;2.35;;;;;;;9.42;98.41;99054.50;5107237;27;20024;-90
2024/01/03 10:57:48;;;;;;;8.50;1.90;;;;;;;9.42;99.47;99072.69;5108605;28;20103;-88
2024/01/03 11:00:20;;;;;;;13.55;2.35;;;;;;;9.44;98.58;99083.81;5106408;27;20012;-91
2024/01/03 11:02:48;;;;;;;;;;;;;;;9.50;98.61;99057.56;5109120;27;20490;-89
2024/01/03 11:05:45;;;;;;;12.45;2.20;;;;;;;9.47;98.26;99068.09;5107736;27;19920;-89
2024/01/03 11:08:14;;;;;;;10.35;1.70;;;;;;;9.46;97.84;99066.44;5106551;27;20118;-91
2024/01/03 11:10:51;;;;;;;12.48;2.13;;;;;;;9.46;97.68;99056.03;5108459;27;20028;-91
2024/01/03 11:13:33;;;;;;;11.32;1.92;;;;;;;9.48;97.98;99046.44;5102831;27;20287;-89
2024/01/03 11:16:01;;;;;;;17.73;2.45;;;;;;;9.60;98.23;99057.09;5104714;27;20027;-89
2024/01/03 11:18:41;;;;;;;14.98;2.20;;;;;;;9.65;97.12;99050.75;5106887;27;20023;-89
2024/01/03 11:21:27;;;;;;;12.38;1.90;;;;;;;9.65;97.85;99044.72;5108655;27;20454;-90
2024/01/03 11:23:55;;;;;;;14.70;2.28;;;;;;;9.66;97.42;99055.03;5115398;27;20088;-91
2024/01/03 11:26:52;;;;;;;10.98;1.77;;;;;;;9.63;98.40;99051.75;5105306;27;21151;-89
2024/01/03 11:29:36;;;;;;;14.02;2.13;;;;;;;9.55;99.41;99049.56;5107885;27;20073;-90
2024/01/03 11:32:04;;;;;;;9.82;1.67;;;;;;;9.47;100.00;99057.72;5107670;27;20041;-90